sensor_id;sensor_type;location;lat;lon;timestamp;temperature;humidity
36654;DHT22;22650;49.350;20.898;2024-03-08T00:00:18;2.20;99.90
36654;DHT22;22650;49.350;20.898;2024-03-08T00:02:54;2.20;99.90
36654;DHT22;22650;49.350;20.898;2024-03-08T00:05:28;2.20;99.90
36654;DHT22;22650;49.350;20.898;2024-03-08T00:08:02;2.10;99.90
36654;DHT22;22650;49.350;20.898;2024-03-08T00:10:36;2.10;99.90
36654;DHT22;22650;49.350;20.898;2024-03-08T00:13:11;2.10;99.90
36654;DHT22;22650;49.350;20.898;2024-03-08T00:15:45;2.20;99.90
36654;DHT22;22650;49.350;20.898;2024-03-08T00:18:20;2.20;99.90
36654;DHT22;22650;49.350;20.898;2024-03-08T00:20:54;2.20;99.90
36654;DHT22;22650;49.350;20.898;2024-03-08T00:23:28;2.20;99.90
36654;DHT22;22650;49.350;20.898;2024-03-08T00:26:02;2.20;99.90
36654;DHT22;22650;49.350;20.898;2024-03-08T00:28:36;2.20;99.90
36654;DHT22;22650;49.350;20.898;2024-03-08T00:31:10;2.20;99.90
36654;DHT22;22650;49.350;20.898;2024-03-08T00:33:45;2.20;99.90
36654;DHT22;22650;49.350;20.898;2024-03-08T00:36:19;2.10;99.90
36654;DHT22;22650;49.350;20.898;2024-03-08T00:38:52;2.20;99.90
36654;DHT22;22650;49.350;20.898;2024-03-08T00:41:26;2.10;99.90
36654;DHT22;22650;49.350;20.898;2024-03-08T00:44:00;2.20;99.90
36654;DHT22;22650;49.350;20.898;2024-03-08T00:46:35;2.20;99.90
36654;DHT22;22650;49.350;20.898;2024-03-08T00:49:11;2.20;99.90
36654;DHT22;22650;49.350;20.898;2024-03-08T00:51:45;2.20;99.90
36654;DHT22;22650;49.350;20.898;2024-03-08T00:54:19;2.20;99.90
36654;DHT22;22650;49.350;20.898;2024-03-08T00:56:52;2.10;99.90
36654;DHT22;22650;49.350;20.898;2024-03-08T00:59:26;2.10;99.90
36654;DHT22;22650;49.350;20.898;2024-03-08T01:02:00;2.00;99.90
36654;DHT22;22650;49.350;20.898;2024-03-08T01:04:35;2.00;99.90
36654;DHT22;22650;49.350;20.898;2024-03-08T01:07:09;2.00;99.90
36654;DHT22;22650;49.350;20.898;2024-03-08T01:09:42;2.00;99.90
36654;DHT22;22650;49.350;20.898;2024-03-08T01:12:16;2.00;99.90
36654;DHT22;22650;49.350;20.898;2024-03-08T01:14:50;2.00;99.90
36654;DHT22;22650;49.350;20.898;2024-03-08T01:17:23;2.00;99.90
36654;DHT22;22650;49.350;20.898;2024-03-08T01:19:59;2.00;99.90
36654;DHT22;22650;49.350;20.898;2024-03-08T01:22:32;2.00;99.90
36654;DHT22;22650;49.350;20.898;2024-03-08T01:25:07;2.00;99.90
36654;DHT22;22650;49.350;20.898;2024-03-08T01:27:40;2.00;99.90
36654;DHT22;22650;49.350;20.898;2024-03-08T01:30:14;2.00;99.90
36654;DHT22;22650;49.350;20.898;2024-03-08T01:32:49;2.00;99.90
36654;DHT22;22650;49.350;20.898;2024-03-08T01:35:24;2.00;99.90
36654;DHT22;22650;49.350;20.898;2024-03-08T01:37:59;2.00;99.90
36654;DHT22;22650;49.350;20.898;2024-03-08T01:40:33;2.00;99.90
36654;DHT22;22650;49.350;20.898;2024-03-08T01:43:19;2.00;99.90
36654;DHT22;22650;49.350;20.898;2024-03-08T01:45:53;2.00;99.90
36654;DHT22;22650;49.350;20.898;2024-03-08T01:48:28;2.00;99.90
36654;DHT22;22650;49.350;20.898;2024-03-08T01:51:04;2.00;99.90
36654;DHT22;22650;49.350;20.898;2024-03-08T01:53:38;2.00;99.90
36654;DHT22;22650;49.350;20.898;2024-03-08T01:56:16;1.90;99.90
36654;DHT22;22650;49.350;20.898;2024-03-08T01:58:51;1.90;99.90
36654;DHT22;22650;49.350;20.898;2024-03-08T02:01:25;1.90;99.90
36654;DHT22;22650;49.350;20.898;2024-03-08T02:03:59;1.90;99.90
36654;DHT22;22650;49.350;20.898;2024-03-08T02:06:34;1.90;99.90
36654;DHT22;22650;49.350;20.898;2024-03-08T02:09:07;1.80;99.90
36654;DHT22;22650;49.350;20.898;2024-03-08T02:11:42;1.80;99.90
36654;DHT22;22650;49.350;20.898;2024-03-08T02:14:17;1.80;99.90
36654;DHT22;22650;49.350;20.898;2024-03-08T02:16:51;1.80;99.90
36654;DHT22;22650;49.350;20.898;2024-03-08T02:19:26;1.80;99.90
36654;DHT22;22650;49.350;20.898;2024-03-08T02:22:01;1.80;99.90
36654;DHT22;22650;49.350;20.898;2024-03-08T02:24:37;1.80;99.90
36654;DHT22;22650;49.350;20.898;2024-03-08T02:27:10;1.80;99.90
36654;DHT22;22650;49.350;20.898;2024-03-08T02:29:44;1.70;99.90
36654;DHT22;22650;49.350;20.898;2024-03-08T02:32:19;1.70;99.90
36654;DHT22;22650;49.350;20.898;2024-03-08T02:34:56;1.70;99.90
36654;DHT22;22650;49.350;20.898;2024-03-08T02:37:34;1.70;99.90
36654;DHT22;22650;49.350;20.898;2024-03-08T02:40:08;1.70;99.90
36654;DHT22;22650;49.350;20.898;2024-03-08T02:42:42;1.60;99.90
36654;DHT22;22650;49.350;20.898;2024-03-08T02:45:15;1.60;99.90
36654;DHT22;22650;49.350;20.898;2024-03-08T02:47:49;1.70;99.90
36654;DHT22;22650;49.350;20.898;2024-03-08T02:50:23;1.70;99.90
36654;DHT22;22650;49.350;20.898;2024-03-08T02:52:59;1.70;99.90
36654;DHT22;22650;49.350;20.898;2024-03-08T02:55:33;1.70;99.90
36654;DHT22;22650;49.350;20.898;2024-03-08T02:58:08;1.60;99.90
36654;DHT22;22650;49.350;20.898;2024-03-08T03:00:43;1.60;99.90
36654;DHT22;22650;49.350;20.898;2024-03-08T03:03:17;1.60;99.90
36654;DHT22;22650;49.350;20.898;2024-03-08T03:05:51;1.60;99.90
36654;DHT22;22650;49.350;20.898;2024-03-08T03:08:29;1.50;99.90
36654;DHT22;22650;49.350;20.898;2024-03-08T03:11:03;1.50;99.90
36654;DHT22;22650;49.350;20.898;2024-03-08T03:13:37;1.60;99.90
36654;DHT22;22650;49.350;20.898;2024-03-08T03:16:10;1.60;99.90
36654;DHT22;22650;49.350;20.898;2024-03-08T03:18:44;1.60;99.90
36654;DHT22;22650;49.350;20.898;2024-03-08T03:21:18;1.60;99.90
36654;DHT22;22650;49.350;20.898;2024-03-08T03:23:53;1.60;99.90
36654;DHT22;22650;49.350;20.898;2024-03-08T03:26:26;1.60;99.90
36654;DHT22;22650;49.350;20.898;2024-03-08T03:29:00;1.50;99.90
36654;DHT22;22650;49.350;20.898;2024-03-08T03:31:35;1.50;99.90
36654;DHT22;22650;49.350;20.898;2024-03-08T03:34:09;1.50;99.90
36654;DHT22;22650;49.350;20.898;2024-03-08T03:36:43;1.60;99.90
36654;DHT22;22650;49.350;20.898;2024-03-08T03:39:21;1.60;99.90
36654;DHT22;22650;49.350;20.898;2024-03-08T03:41:55;1.60;99.90
36654;DHT22;22650;49.350;20.898;2024-03-08T03:44:29;1.50;99.90
36654;DHT22;22650;49.350;20.898;2024-03-08T03:47:03;1.50;99.90
36654;DHT22;22650;49.350;20.898;2024-03-08T03:49:36;1.50;99.90
36654;DHT22;22650;49.350;20.898;2024-03-08T03:52:10;1.40;99.90
36654;DHT22;22650;49.350;20.898;2024-03-08T03:54:46;1.40;99.90
36654;DHT22;22650;49.350;20.898;2024-03-08T03:57:19;1.40;99.90
36654;DHT22;22650;49.350;20.898;2024-03-08T03:59:55;1.40;99.90
36654;DHT22;22650;49.350;20.898;2024-03-08T04:02:29;1.40;99.90
36654;DHT22;22650;49.350;20.898;2024-03-08T04:05:04;1.40;99.90
36654;DHT22;22650;49.350;20.898;2024-03-08T04:07:38;1.40;99.90
36654;DHT22;22650;49.350;20.898;2024-03-08T04:10:13;1.40;99.90
36654;DHT22;22650;49.350;20.898;2024-03-08T04:12:47;1.30;99.90
36654;DHT22;22650;49.350;20.898;2024-03-08T04:15:20;1.30;99.90
36654;DHT22;22650;49.350;20.898;2024-03-08T04:17:55;1.30;99.90
36654;DHT22;22650;49.350;20.898;2024-03-08T04:20:29;1.30;99.90
36654;DHT22;22650;49.350;20.898;2024-03-08T04:23:04;1.30;99.90
36654;DHT22;22650;49.350;20.898;2024-03-08T04:25:39;1.20;99.90
36654;DHT22;22650;49.350;20.898;2024-03-08T04:28:14;1.20;99.90
36654;DHT22;22650;49.350;20.898;2024-03-08T04:30:49;1.20;99.90
36654;DHT22;22650;49.350;20.898;2024-03-08T04:33:23;1.20;99.90
36654;DHT22;22650;49.350;20.898;2024-03-08T04:35:56;1.10;99.90
36654;DHT22;22650;49.350;20.898;2024-03-08T04:38:30;1.10;99.90
36654;DHT22;22650;49.350;20.898;2024-03-08T04:41:05;1.10;99.90
36654;DHT22;22650;49.350;20.898;2024-03-08T04:43:39;1.10;99.90
36654;DHT22;22650;49.350;20.898;2024-03-08T04:46:13;1.10;99.90
36654;DHT22;22650;49.350;20.898;2024-03-08T04:48:46;1.10;99.90
36654;DHT22;22650;49.350;20.898;2024-03-08T04:51:20;1.20;99.90
36654;DHT22;22650;49.350;20.898;2024-03-08T04:53:54;1.20;99.90
36654;DHT22;22650;49.350;20.898;2024-03-08T04:56:29;1.20;99.90
36654;DHT22;22650;49.350;20.898;2024-03-08T04:59:02;1.20;99.90
36654;DHT22;22650;49.350;20.898;2024-03-08T05:01:40;1.10;99.90
36654;DHT22;22650;49.350;20.898;2024-03-08T05:04:14;1.10;99.90
36654;DHT22;22650;49.350;20.898;2024-03-08T05:06:47;1.10;99.90
36654;DHT22;22650;49.350;20.898;2024-03-08T05:09:21;1.10;99.90
36654;DHT22;22650;49.350;20.898;2024-03-08T05:11:57;1.10;99.90
36654;DHT22;22650;49.350;20.898;2024-03-08T05:14:32;1.10;99.90
36654;DHT22;22650;49.350;20.898;2024-03-08T05:17:07;1.10;99.90
36654;DHT22;22650;49.350;20.898;2024-03-08T05:19:41;1.10;99.90
36654;DHT22;22650;49.350;20.898;2024-03-08T05:22:15;1.20;99.90
36654;DHT22;22650;49.350;20.898;2024-03-08T05:24:49;1.20;99.90
36654;DHT22;22650;49.350;20.898;2024-03-08T05:27:24;1.10;99.90
36654;DHT22;22650;49.350;20.898;2024-03-08T05:29:57;1.20;99.90
36654;DHT22;22650;49.350;20.898;2024-03-08T05:32:31;1.20;99.90
36654;DHT22;22650;49.350;20.898;2024-03-08T05:35:05;1.20;99.90
36654;DHT22;22650;49.350;20.898;2024-03-08T05:37:39;1.20;99.90
36654;DHT22;22650;49.350;20.898;2024-03-08T05:40:13;1.30;99.90
36654;DHT22;22650;49.350;20.898;2024-03-08T05:42:51;1.30;99.90
36654;DHT22;22650;49.350;20.898;2024-03-08T05:45:25;1.30;99.90
36654;DHT22;22650;49.350;20.898;2024-03-08T05:47:59;1.20;99.90
36654;DHT22;22650;49.350;20.898;2024-03-08T05:50:33;1.10;99.90
36654;DHT22;22650;49.350;20.898;2024-03-08T05:53:07;1.10;99.90
36654;DHT22;22650;49.350;20.898;2024-03-08T05:55:40;1.10;99.90
36654;DHT22;22650;49.350;20.898;2024-03-08T05:58:15;1.10;99.90
36654;DHT22;22650;49.350;20.898;2024-03-08T06:00:49;1.20;99.90
36654;DHT22;22650;49.350;20.898;2024-03-08T06:03:25;1.10;99.90
36654;DHT22;22650;49.350;20.898;2024-03-08T06:05:58;1.20;99.90
36654;DHT22;22650;49.350;20.898;2024-03-08T06:08:32;1.20;99.90
36654;DHT22;22650;49.350;20.898;2024-03-08T06:11:06;1.20;99.90
36654;DHT22;22650;49.350;20.898;2024-03-08T06:13:42;1.20;99.90
36654;DHT22;22650;49.350;20.898;2024-03-08T06:16:18;1.30;99.90
36654;DHT22;22650;49.350;20.898;2024-03-08T06:18:52;1.30;99.90
36654;DHT22;22650;49.350;20.898;2024-03-08T06:21:27;1.30;99.90
36654;DHT22;22650;49.350;20.898;2024-03-08T06:24:01;1.30;99.90
36654;DHT22;22650;49.350;20.898;2024-03-08T06:26:35;1.30;99.90
36654;DHT22;22650;49.350;20.898;2024-03-08T06:29:12;1.20;99.90
36654;DHT22;22650;49.350;20.898;2024-03-08T06:31:47;1.20;99.90
36654;DHT22;22650;49.350;20.898;2024-03-08T06:34:22;1.30;99.90
36654;DHT22;22650;49.350;20.898;2024-03-08T06:36:56;1.30;99.90
36654;DHT22;22650;49.350;20.898;2024-03-08T06:39:33;1.30;99.90
36654;DHT22;22650;49.350;20.898;2024-03-08T06:42:20;1.30;99.90
36654;DHT22;22650;49.350;20.898;2024-03-08T06:44:57;1.30;99.90
36654;DHT22;22650;49.350;20.898;2024-03-08T06:47:36;1.30;99.90
36654;DHT22;22650;49.350;20.898;2024-03-08T06:50:10;1.40;99.90
36654;DHT22;22650;49.350;20.898;2024-03-08T06:52:44;1.40;99.90
36654;DHT22;22650;49.350;20.898;2024-03-08T06:55:23;1.40;99.90
36654;DHT22;22650;49.350;20.898;2024-03-08T06:57:56;1.40;99.90
36654;DHT22;22650;49.350;20.898;2024-03-08T07:00:31;1.40;99.90
36654;DHT22;22650;49.350;20.898;2024-03-08T07:03:07;1.50;99.90
36654;DHT22;22650;49.350;20.898;2024-03-08T07:05:45;1.60;99.90
36654;DHT22;22650;49.350;20.898;2024-03-08T07:08:18;1.70;99.90
36654;DHT22;22650;49.350;20.898;2024-03-08T07:10:54;1.70;99.90
36654;DHT22;22650;49.350;20.898;2024-03-08T07:13:29;1.70;99.90
36654;DHT22;22650;49.350;20.898;2024-03-08T07:16:05;1.80;99.90
36654;DHT22;22650;49.350;20.898;2024-03-08T07:18:40;1.80;99.90
36654;DHT22;22650;49.350;20.898;2024-03-08T07:21:16;1.90;99.90
36654;DHT22;22650;49.350;20.898;2024-03-08T07:23:50;1.90;99.90
36654;DHT22;22650;49.350;20.898;2024-03-08T07:26:46;2.00;99.90
36654;DHT22;22650;49.350;20.898;2024-03-08T07:29:22;2.00;99.90
36654;DHT22;22650;49.350;20.898;2024-03-08T07:31:57;2.10;99.90
36654;DHT22;22650;49.350;20.898;2024-03-08T07:34:43;2.10;99.90
36654;DHT22;22650;49.350;20.898;2024-03-08T07:37:17;2.10;99.90
36654;DHT22;22650;49.350;20.898;2024-03-08T07:39:52;2.10;99.90
36654;DHT22;22650;49.350;20.898;2024-03-08T07:42:26;2.20;99.90
36654;DHT22;22650;49.350;20.898;2024-03-08T07:45:01;2.30;99.90
36654;DHT22;22650;49.350;20.898;2024-03-08T07:47:36;2.30;99.90
36654;DHT22;22650;49.350;20.898;2024-03-08T07:50:10;2.40;99.90
36654;DHT22;22650;49.350;20.898;2024-03-08T07:52:48;2.40;99.90
36654;DHT22;22650;49.350;20.898;2024-03-08T07:55:22;2.50;99.90
36654;DHT22;22650;49.350;20.898;2024-03-08T07:57:56;2.50;99.90
36654;DHT22;22650;49.350;20.898;2024-03-08T08:00:30;2.50;99.90
36654;DHT22;22650;49.350;20.898;2024-03-08T08:03:05;2.50;99.90
36654;DHT22;22650;49.350;20.898;2024-03-08T08:05:40;2.50;99.90
36654;DHT22;22650;49.350;20.898;2024-03-08T08:08:14;2.50;99.90
36654;DHT22;22650;49.350;20.898;2024-03-08T08:10:48;2.60;99.90
36654;DHT22;22650;49.350;20.898;2024-03-08T08:13:22;2.60;99.90
36654;DHT22;22650;49.350;20.898;2024-03-08T08:15:56;2.60;99.90
36654;DHT22;22650;49.350;20.898;2024-03-08T08:18:31;2.70;99.90
36654;DHT22;22650;49.350;20.898;2024-03-08T08:21:10;2.70;99.90
36654;DHT22;22650;49.350;20.898;2024-03-08T08:23:44;2.80;99.90
36654;DHT22;22650;49.350;20.898;2024-03-08T08:26:18;2.80;99.90
36654;DHT22;22650;49.350;20.898;2024-03-08T08:28:57;2.90;99.90
36654;DHT22;22650;49.350;20.898;2024-03-08T08:31:32;2.90;99.90
36654;DHT22;22650;49.350;20.898;2024-03-08T08:34:09;2.90;99.90
36654;DHT22;22650;49.350;20.898;2024-03-08T08:36:44;2.90;99.90
36654;DHT22;22650;49.350;20.898;2024-03-08T08:39:17;3.00;99.90
36654;DHT22;22650;49.350;20.898;2024-03-08T08:41:51;3.00;99.90
36654;DHT22;22650;49.350;20.898;2024-03-08T08:44:27;3.10;99.90
36654;DHT22;22650;49.350;20.898;2024-03-08T08:47:00;3.10;99.90
36654;DHT22;22650;49.350;20.898;2024-03-08T08:49:45;3.10;99.90
36654;DHT22;22650;49.350;20.898;2024-03-08T08:52:20;3.20;99.90
36654;DHT22;22650;49.350;20.898;2024-03-08T08:54:53;3.20;99.90
36654;DHT22;22650;49.350;20.898;2024-03-08T08:57:27;3.30;99.90
36654;DHT22;22650;49.350;20.898;2024-03-08T09:00:01;3.30;99.90
36654;DHT22;22650;49.350;20.898;2024-03-08T09:02:35;3.40;99.90
36654;DHT22;22650;49.350;20.898;2024-03-08T09:05:11;3.40;99.90
36654;DHT22;22650;49.350;20.898;2024-03-08T09:07:47;3.50;99.90
36654;DHT22;22650;49.350;20.898;2024-03-08T09:10:20;3.50;99.90
36654;DHT22;22650;49.350;20.898;2024-03-08T09:13:00;3.60;99.90
36654;DHT22;22650;49.350;20.898;2024-03-08T09:15:36;3.70;99.90
36654;DHT22;22650;49.350;20.898;2024-03-08T09:18:12;3.80;99.90
36654;DHT22;22650;49.350;20.898;2024-03-08T09:20:47;3.80;99.90
36654;DHT22;22650;49.350;20.898;2024-03-08T09:23:21;3.80;99.90
36654;DHT22;22650;49.350;20.898;2024-03-08T09:25:55;3.80;99.90
36654;DHT22;22650;49.350;20.898;2024-03-08T09:28:32;3.90;99.90
36654;DHT22;22650;49.350;20.898;2024-03-08T09:31:06;4.00;99.90
36654;DHT22;22650;49.350;20.898;2024-03-08T09:33:39;4.00;99.90
36654;DHT22;22650;49.350;20.898;2024-03-08T09:36:15;4.10;99.90
36654;DHT22;22650;49.350;20.898;2024-03-08T09:38:49;4.10;99.90
36654;DHT22;22650;49.350;20.898;2024-03-08T09:41:23;4.20;99.90
36654;DHT22;22650;49.350;20.898;2024-03-08T09:43:57;4.30;99.90
36654;DHT22;22650;49.350;20.898;2024-03-08T09:46:32;4.30;99.90
36654;DHT22;22650;49.350;20.898;2024-03-08T09:49:07;4.30;99.90
36654;DHT22;22650;49.350;20.898;2024-03-08T09:51:42;4.30;99.90
36654;DHT22;22650;49.350;20.898;2024-03-08T09:54:16;4.30;99.90
36654;DHT22;22650;49.350;20.898;2024-03-08T09:56:55;4.40;99.90
36654;DHT22;22650;49.350;20.898;2024-03-08T09:59:29;4.40;99.90
36654;DHT22;22650;49.350;20.898;2024-03-08T10:02:19;4.50;99.90
36654;DHT22;22650;49.350;20.898;2024-03-08T10:04:54;4.40;99.90
36654;DHT22;22650;49.350;20.898;2024-03-08T10:07:29;4.50;99.90
36654;DHT22;22650;49.350;20.898;2024-03-08T10:10:04;4.60;99.90
36654;DHT22;22650;49.350;20.898;2024-03-08T10:12:38;4.70;99.90
36654;DHT22;22650;49.350;20.898;2024-03-08T10:15:11;4.90;99.90
36654;DHT22;22650;49.350;20.898;2024-03-08T10:17:49;4.90;99.90
36654;DHT22;22650;49.350;20.898;2024-03-08T10:20:22;5.10;99.90
36654;DHT22;22650;49.350;20.898;2024-03-08T10:23:00;5.00;99.90
36654;DHT22;22650;49.350;20.898;2024-03-08T10:25:43;5.10;99.90
36654;DHT22;22650;49.350;20.898;2024-03-08T10:28:17;5.20;99.90
36654;DHT22;22650;49.350;20.898;2024-03-08T10:30:51;5.20;99.90
36654;DHT22;22650;49.350;20.898;2024-03-08T10:33:25;5.10;99.90
36654;DHT22;22650;49.350;20.898;2024-03-08T10:35:59;5.10;99.90
36654;DHT22;22650;49.350;20.898;2024-03-08T10:38:36;5.10;99.90
36654;DHT22;22650;49.350;20.898;2024-03-08T10:41:11;5.30;99.90
36654;DHT22;22650;49.350;20.898;2024-03-08T10:43:57;5.30;99.90
36654;DHT22;22650;49.350;20.898;2024-03-08T10:46:50;5.30;99.90
36654;DHT22;22650;49.350;20.898;2024-03-08T10:49:31;5.50;99.90
36654;DHT22;22650;49.350;20.898;2024-03-08T10:52:07;5.60;99.90
36654;DHT22;22650;49.350;20.898;2024-03-08T10:54:45;5.60;99.90
36654;DHT22;22650;49.350;20.898;2024-03-08T10:57:21;5.70;99.90
36654;DHT22;22650;49.350;20.898;2024-03-08T10:59:56;5.80;99.90
36654;DHT22;22650;49.350;20.898;2024-03-08T11:02:31;5.90;99.90
36654;DHT22;22650;49.350;20.898;2024-03-08T11:05:05;6.00;99.90
36654;DHT22;22650;49.350;20.898;2024-03-08T11:07:45;6.00;99.90
36654;DHT22;22650;49.350;20.898;2024-03-08T11:10:22;6.10;99.90
36654;DHT22;22650;49.350;20.898;2024-03-08T11:12:56;6.30;99.90
36654;DHT22;22650;49.350;20.898;2024-03-08T11:15:30;6.40;99.90
36654;DHT22;22650;49.350;20.898;2024-03-08T11:18:06;6.60;99.90
36654;DHT22;22650;49.350;20.898;2024-03-08T11:20:42;6.90;99.90
36654;DHT22;22650;49.350;20.898;2024-03-08T11:23:22;6.90;99.90
36654;DHT22;22650;49.350;20.898;2024-03-08T11:25:59;7.00;99.90
36654;DHT22;22650;49.350;20.898;2024-03-08T11:28:33;7.10;99.90
36654;DHT22;22650;49.350;20.898;2024-03-08T11:31:25;7.10;99.90
36654;DHT22;22650;49.350;20.898;2024-03-08T11:34:00;7.20;99.90
36654;DHT22;22650;49.350;20.898;2024-03-08T11:36:35;7.20;99.90
36654;DHT22;22650;49.350;20.898;2024-03-08T11:39:09;7.30;99.90
36654;DHT22;22650;49.350;20.898;2024-03-08T11:41:48;7.40;99.90
36654;DHT22;22650;49.350;20.898;2024-03-08T11:44:24;7.50;99.90
36654;DHT22;22650;49.350;20.898;2024-03-08T11:46:59;7.70;99.90
36654;DHT22;22650;49.350;20.898;2024-03-08T11:49:33;8.00;99.90
36654;DHT22;22650;49.350;20.898;2024-03-08T11:52:10;8.40;99.90
36654;DHT22;22650;49.350;20.898;2024-03-08T11:54:51;8.70;99.90
36654;DHT22;22650;49.350;20.898;2024-03-08T11:57:27;8.90;99.90
36654;DHT22;22650;49.350;20.898;2024-03-08T12:00:02;9.00;99.90
36654;DHT22;22650;49.350;20.898;2024-03-08T12:02:39;9.50;99.90
36654;DHT22;22650;49.350;20.898;2024-03-08T12:05:14;9.80;99.90
36654;DHT22;22650;49.350;20.898;2024-03-08T12:07:56;9.90;99.90
36654;DHT22;22650;49.350;20.898;2024-03-08T12:10:30;10.00;99.90
36654;DHT22;22650;49.350;20.898;2024-03-08T12:13:07;10.20;99.90
36654;DHT22;22650;49.350;20.898;2024-03-08T12:15:45;10.20;99.90
36654;DHT22;22650;49.350;20.898;2024-03-08T12:18:19;10.40;99.90
36654;DHT22;22650;49.350;20.898;2024-03-08T12:21:04;10.40;99.90
36654;DHT22;22650;49.350;20.898;2024-03-08T12:23:39;10.60;99.90
36654;DHT22;22650;49.350;20.898;2024-03-08T12:26:14;10.70;99.90
36654;DHT22;22650;49.350;20.898;2024-03-08T12:28:50;10.50;99.90
36654;DHT22;22650;49.350;20.898;2024-03-08T12:31:24;10.60;99.90
36654;DHT22;22650;49.350;20.898;2024-03-08T12:34:00;10.60;99.90
36654;DHT22;22650;49.350;20.898;2024-03-08T12:36:36;10.50;99.90
36654;DHT22;22650;49.350;20.898;2024-03-08T12:39:10;10.60;99.90
36654;DHT22;22650;49.350;20.898;2024-03-08T12:41:44;10.80;99.90
36654;DHT22;22650;49.350;20.898;2024-03-08T12:44:20;10.90;99.90
36654;DHT22;22650;49.350;20.898;2024-03-08T12:46:54;10.80;99.90
36654;DHT22;22650;49.350;20.898;2024-03-08T12:49:30;10.90;99.90
36654;DHT22;22650;49.350;20.898;2024-03-08T12:52:09;11.10;99.90
36654;DHT22;22650;49.350;20.898;2024-03-08T12:54:44;11.10;99.90
36654;DHT22;22650;49.350;20.898;2024-03-08T12:57:19;11.10;99.90
36654;DHT22;22650;49.350;20.898;2024-03-08T12:59:54;11.30;99.90
36654;DHT22;22650;49.350;20.898;2024-03-08T13:02:28;11.40;99.90
36654;DHT22;22650;49.350;20.898;2024-03-08T13:05:02;11.30;99.90
36654;DHT22;22650;49.350;20.898;2024-03-08T13:07:37;11.50;99.90
36654;DHT22;22650;49.350;20.898;2024-03-08T13:10:11;11.50;99.90
36654;DHT22;22650;49.350;20.898;2024-03-08T13:12:47;11.50;99.90
36654;DHT22;22650;49.350;20.898;2024-03-08T13:15:27;11.60;99.90
36654;DHT22;22650;49.350;20.898;2024-03-08T13:18:02;11.30;99.90
36654;DHT22;22650;49.350;20.898;2024-03-08T13:20:35;11.40;99.90
36654;DHT22;22650;49.350;20.898;2024-03-08T13:23:18;11.30;99.90
36654;DHT22;22650;49.350;20.898;2024-03-08T13:25:52;11.10;99.90
36654;DHT22;22650;49.350;20.898;2024-03-08T13:28:26;11.10;99.90
36654;DHT22;22650;49.350;20.898;2024-03-08T13:31:05;11.10;99.90
36654;DHT22;22650;49.350;20.898;2024-03-08T13:33:42;10.40;99.90
36654;DHT22;22650;49.350;20.898;2024-03-08T13:36:18;10.40;99.90
36654;DHT22;22650;49.350;20.898;2024-03-08T13:38:53;10.50;99.90
36654;DHT22;22650;49.350;20.898;2024-03-08T13:41:26;10.50;99.90
36654;DHT22;22650;49.350;20.898;2024-03-08T13:44:04;10.50;99.90
36654;DHT22;22650;49.350;20.898;2024-03-08T13:46:40;10.50;99.90
36654;DHT22;22650;49.350;20.898;2024-03-08T13:49:14;10.50;99.90
36654;DHT22;22650;49.350;20.898;2024-03-08T13:51:48;10.40;99.90
36654;DHT22;22650;49.350;20.898;2024-03-08T13:54:22;10.50;99.90
36654;DHT22;22650;49.350;20.898;2024-03-08T13:56:55;10.40;99.90
36654;DHT22;22650;49.350;20.898;2024-03-08T13:59:29;10.20;99.90
36654;DHT22;22650;49.350;20.898;2024-03-08T14:02:06;10.00;99.90
36654;DHT22;22650;49.350;20.898;2024-03-08T14:04:45;10.10;99.90
36654;DHT22;22650;49.350;20.898;2024-03-08T14:07:19;10.00;99.90
36654;DHT22;22650;49.350;20.898;2024-03-08T14:09:53;10.00;99.90
36654;DHT22;22650;49.350;20.898;2024-03-08T14:12:26;9.90;99.90
36654;DHT22;22650;49.350;20.898;2024-03-08T14:15:02;9.50;99.90
36654;DHT22;22650;49.350;20.898;2024-03-08T14:17:40;9.40;99.90
36654;DHT22;22650;49.350;20.898;2024-03-08T14:20:13;9.40;99.90
36654;DHT22;22650;49.350;20.898;2024-03-08T14:22:47;9.20;99.90
36654;DHT22;22650;49.350;20.898;2024-03-08T14:25:24;8.90;99.90
36654;DHT22;22650;49.350;20.898;2024-03-08T14:27:58;8.80;99.90
36654;DHT22;22650;49.350;20.898;2024-03-08T14:30:36;8.70;99.90
36654;DHT22;22650;49.350;20.898;2024-03-08T14:33:12;8.60;99.90
36654;DHT22;22650;49.350;20.898;2024-03-08T14:35:45;8.50;99.90
36654;DHT22;22650;49.350;20.898;2024-03-08T14:38:19;8.30;99.90
36654;DHT22;22650;49.350;20.898;2024-03-08T14:40:53;8.30;99.90
36654;DHT22;22650;49.350;20.898;2024-03-08T14:43:27;8.20;99.90
36654;DHT22;22650;49.350;20.898;2024-03-08T14:46:01;8.10;99.90
36654;DHT22;22650;49.350;20.898;2024-03-08T14:48:36;8.00;99.90
36654;DHT22;22650;49.350;20.898;2024-03-08T14:51:10;8.00;99.90
36654;DHT22;22650;49.350;20.898;2024-03-08T14:53:46;7.90;99.90
36654;DHT22;22650;49.350;20.898;2024-03-08T14:56:20;7.70;99.90
36654;DHT22;22650;49.350;20.898;2024-03-08T14:58:55;7.70;99.90
36654;DHT22;22650;49.350;20.898;2024-03-08T15:01:31;7.60;99.90
36654;DHT22;22650;49.350;20.898;2024-03-08T15:04:09;7.50;99.90
36654;DHT22;22650;49.350;20.898;2024-03-08T15:06:43;7.40;99.90
36654;DHT22;22650;49.350;20.898;2024-03-08T15:09:23;7.30;99.90
36654;DHT22;22650;49.350;20.898;2024-03-08T15:11:57;7.00;99.90
36654;DHT22;22650;49.350;20.898;2024-03-08T15:14:31;7.00;99.90
36654;DHT22;22650;49.350;20.898;2024-03-08T15:17:05;6.80;99.90
36654;DHT22;22650;49.350;20.898;2024-03-08T15:19:44;6.70;99.90
36654;DHT22;22650;49.350;20.898;2024-03-08T15:22:20;6.50;99.90
36654;DHT22;22650;49.350;20.898;2024-03-08T15:24:55;6.50;99.90
36654;DHT22;22650;49.350;20.898;2024-03-08T15:27:30;6.40;99.90
36654;DHT22;22650;49.350;20.898;2024-03-08T15:30:05;6.30;99.90
36654;DHT22;22650;49.350;20.898;2024-03-08T15:32:44;6.20;99.90
36654;DHT22;22650;49.350;20.898;2024-03-08T15:35:21;6.10;99.90
36654;DHT22;22650;49.350;20.898;2024-03-08T15:37:56;5.90;99.90
36654;DHT22;22650;49.350;20.898;2024-03-08T15:40:34;5.80;99.90
36654;DHT22;22650;49.350;20.898;2024-03-08T15:43:08;5.60;99.90
36654;DHT22;22650;49.350;20.898;2024-03-08T15:45:41;5.50;99.90
36654;DHT22;22650;49.350;20.898;2024-03-08T15:48:16;5.40;99.90
36654;DHT22;22650;49.350;20.898;2024-03-08T15:50:52;5.30;99.90
36654;DHT22;22650;49.350;20.898;2024-03-08T15:53:25;5.20;99.90
36654;DHT22;22650;49.350;20.898;2024-03-08T15:55:59;5.10;99.90
36654;DHT22;22650;49.350;20.898;2024-03-08T15:58:33;5.00;99.90
36654;DHT22;22650;49.350;20.898;2024-03-08T16:01:08;5.00;99.90
36654;DHT22;22650;49.350;20.898;2024-03-08T16:03:44;4.90;99.90
36654;DHT22;22650;49.350;20.898;2024-03-08T16:06:21;4.70;99.90
36654;DHT22;22650;49.350;20.898;2024-03-08T16:08:57;4.60;99.90
36654;DHT22;22650;49.350;20.898;2024-03-08T16:11:31;4.60;99.90
36654;DHT22;22650;49.350;20.898;2024-03-08T16:14:07;4.50;99.90
36654;DHT22;22650;49.350;20.898;2024-03-08T16:16:43;4.40;99.90
36654;DHT22;22650;49.350;20.898;2024-03-08T16:19:17;4.40;99.90